createdAt,value
2022-10-21T00:00:25.224Z,10.40
2022-10-21T00:02:59.824Z,10.75
2022-10-21T00:05:30.785Z,12.07
2022-10-21T00:08:06.068Z,9.55
2022-10-21T00:13:06.946Z,12.90
2022-10-21T00:15:42.170Z,9.20
2022-10-21T00:18:14.976Z,11.57
2022-10-21T00:20:58.667Z,11.30
2022-10-21T00:23:44.660Z,15.65
2022-10-21T00:26:26.006Z,14.52
2022-10-21T00:29:05.237Z,15.50
2022-10-21T00:34:17.425Z,14.05
2022-10-21T00:36:48.320Z,10.48
2022-10-21T00:39:16.206Z,10.57
2022-10-21T00:41:45.057Z,9.88
2022-10-21T00:47:14.889Z,12.25
2022-10-21T00:50:03.312Z,9.70
2022-10-21T00:52:40.686Z,11.40
2022-10-21T00:55:13.130Z,9.55
2022-10-21T00:57:45.556Z,10.25
2022-10-21T01:00:22.000Z,10.55
2022-10-21T01:03:12.107Z,12.50
2022-10-21T01:05:48.058Z,12.30
2022-10-21T01:08:19.436Z,12.55
2022-10-21T01:10:57.279Z,10.52
2022-10-21T01:13:51.438Z,11.93
2022-10-21T01:16:32.455Z,13.32
2022-10-21T01:19:24.283Z,11.10
2022-10-21T01:22:26.813Z,12.82
2022-10-21T01:24:54.561Z,9.60
2022-10-21T01:27:56.314Z,10.30
2022-10-21T01:30:47.079Z,12.82
2022-10-21T01:33:38.457Z,11.52
2022-10-21T01:36:21.634Z,15.30
2022-10-21T01:39:13.183Z,12.75
2022-10-21T01:42:14.722Z,12.80
2022-10-21T01:45:02.995Z,13.02
2022-10-21T01:48:03.694Z,10.63
2022-10-21T01:50:42.207Z,12.95
2022-10-21T01:53:28.518Z,10.38
2022-10-21T01:56:05.001Z,12.40
2022-10-21T01:58:48.839Z,11.73
2022-10-21T02:01:19.315Z,12.57
2022-10-21T02:03:56.426Z,12.02
2022-10-21T02:06:29.203Z,15.07
2022-10-21T02:09:01.512Z,13.05
2022-10-21T02:11:55.127Z,12.32
2022-10-21T02:14:47.850Z,18.27
2022-10-21T02:17:26.773Z,12.30
2022-10-21T02:20:34.051Z,14.70
2022-10-21T02:23:09.488Z,15.73
2022-10-21T02:25:42.747Z,14.02
2022-10-21T02:28:20.922Z,12.32
2022-10-21T02:31:10.965Z,13.98
2022-10-21T02:34:00.709Z,10.40
2022-10-21T02:36:52.427Z,14.88
2022-10-21T02:39:40.313Z,13.15
2022-10-21T02:42:24.388Z,17.98
2022-10-21T02:44:53.348Z,13.85
2022-10-21T02:47:29.131Z,11.38
2022-10-21T02:50:04.081Z,14.07
2022-10-21T02:55:07.545Z,14.48
2022-10-21T02:57:38.048Z,12.15
2022-10-21T03:00:07.128Z,14.07
2022-10-21T03:02:40.421Z,12.38
2022-10-21T03:05:15.510Z,14.23
2022-10-21T03:07:43.776Z,18.85
2022-10-21T03:10:14.814Z,14.60
2022-10-21T03:12:49.589Z,13.40
2022-10-21T03:15:19.038Z,13.45
2022-10-21T03:17:47.587Z,15.23
2022-10-21T03:20:15.809Z,12.65
2022-10-21T03:22:45.829Z,14.90
2022-10-21T03:25:14.060Z,15.20
2022-10-21T03:27:45.218Z,13.65
2022-10-21T03:30:13.312Z,13.80
2022-10-21T03:32:42.460Z,13.90
2022-10-21T03:35:16.774Z,12.13
2022-10-21T03:37:47.083Z,14.38
2022-10-21T03:40:17.273Z,13.90
2022-10-21T03:42:45.112Z,15.13
2022-10-21T03:45:14.434Z,15.45
2022-10-21T03:47:41.950Z,18.55
2022-10-21T03:50:13.921Z,15.20
2022-10-21T03:52:44.425Z,14.68
2022-10-21T03:55:16.395Z,13.27
2022-10-21T03:57:46.996Z,12.82
2022-10-21T04:00:15.136Z,12.95
2022-10-21T04:02:45.602Z,15.48
2022-10-21T04:05:13.479Z,14.85
2022-10-21T04:07:41.848Z,15.18
2022-10-21T04:10:10.340Z,14.82
2022-10-21T04:12:43.194Z,20.15
2022-10-21T04:15:13.767Z,11.88
2022-10-21T04:17:42.026Z,12.77
2022-10-21T04:20:10.866Z,12.98
2022-10-21T04:22:39.123Z,15.23
2022-10-21T04:25:07.289Z,15.15
2022-10-21T04:27:35.021Z,13.55
2022-10-21T04:30:04.124Z,12.63
2022-10-21T04:32:31.828Z,15.20
2022-10-21T04:35:01.669Z,12.13
2022-10-21T04:37:29.153Z,14.13
2022-10-21T04:39:57.578Z,14.32
2022-10-21T04:42:25.392Z,14.07
2022-10-21T04:44:55.224Z,14.68
2022-10-21T04:47:22.717Z,15.88
2022-10-21T04:49:52.426Z,12.43
2022-10-21T04:52:21.112Z,14.45
2022-10-21T04:54:48.895Z,12.73
2022-10-21T04:57:16.236Z,15.55
2022-10-21T04:59:43.764Z,14.32
2022-10-21T05:02:13.475Z,15.88
2022-10-21T05:04:41.013Z,15.63
2022-10-21T05:07:09.098Z,16.98
2022-10-21T05:09:36.172Z,17.80
2022-10-21T05:12:03.305Z,15.25
2022-10-21T05:14:31.316Z,18.70
2022-10-21T05:16:58.203Z,17.77
2022-10-21T05:19:28.994Z,16.15
2022-10-21T05:21:59.631Z,15.63
2022-10-21T05:24:38.222Z,13.70
2022-10-21T05:27:05.762Z,16.40
2022-10-21T05:29:33.541Z,18.88
2022-10-21T05:32:01.029Z,15.88
2022-10-21T05:34:28.475Z,12.48
2022-10-21T05:36:58.328Z,18.90
2022-10-21T05:39:27.945Z,12.65
2022-10-21T05:41:58.281Z,16.73
2022-10-21T05:44:35.272Z,17.00
2022-10-21T05:47:03.081Z,15.70
2022-10-21T05:49:31.478Z,14.45
2022-10-21T05:51:59.091Z,14.38
2022-10-21T05:54:29.311Z,15.48
2022-10-21T05:56:57.561Z,14.15
2022-10-21T05:59:26.871Z,19.65
2022-10-21T06:01:54.457Z,18.23
2022-10-21T06:04:22.301Z,17.58
2022-10-21T06:06:50.572Z,17.45
2022-10-21T06:09:18.263Z,17.63
2022-10-21T06:11:49.493Z,16.48
2022-10-21T06:14:17.290Z,21.73
2022-10-21T06:16:49.468Z,16.70
2022-10-21T06:19:17.122Z,21.40
2022-10-21T06:21:44.561Z,17.55
2022-10-21T06:24:13.033Z,17.17
2022-10-21T06:26:40.580Z,19.08
2022-10-21T06:29:09.968Z,17.48
2022-10-21T06:31:37.733Z,16.65
2022-10-21T06:34:05.600Z,14.52
2022-10-21T06:36:38.328Z,16.08
2022-10-21T06:39:06.606Z,16.13
2022-10-21T06:41:34.015Z,19.75
2022-10-21T06:44:01.659Z,16.38
2022-10-21T06:46:29.208Z,19.85
2022-10-21T06:48:56.898Z,16.38
2022-10-21T06:51:25.180Z,16.10
2022-10-21T06:53:54.754Z,16.73
2022-10-21T06:56:22.892Z,17.70
2022-10-21T06:58:50.854Z,18.73
2022-10-21T07:01:34.910Z,17.27
2022-10-21T07:04:09.539Z,14.75
2022-10-21T07:06:42.401Z,15.73
2022-10-21T07:09:12.883Z,18.25
2022-10-21T07:11:45.038Z,17.48
2022-10-21T07:14:39.125Z,17.20
2022-10-21T07:17:13.094Z,18.42
2022-10-21T07:19:40.854Z,16.38
2022-10-21T07:23:01.227Z,14.80
2022-10-21T07:28:59.324Z,13.52
2022-10-21T07:32:09.683Z,17.65
2022-10-21T07:34:45.113Z,16.67
2022-10-21T07:37:15.310Z,16.67
2022-10-21T07:39:43.775Z,15.90
2022-10-21T07:42:14.644Z,14.73
2022-10-21T07:44:42.431Z,14.52
2022-10-21T07:52:24.896Z,14.68
2022-10-21T07:54:52.007Z,14.65
2022-10-21T07:57:18.973Z,16.13
2022-10-21T07:59:45.845Z,17.23
2022-10-21T08:02:14.939Z,16.50
2022-10-21T08:04:41.805Z,15.48
2022-10-21T08:07:10.390Z,14.68
2022-10-21T08:09:40.151Z,16.77
2022-10-21T08:12:12.929Z,17.63
2022-10-21T08:14:42.279Z,14.77
2022-10-21T08:17:09.259Z,13.07
2022-10-21T08:19:36.187Z,14.90
2022-10-21T08:22:03.159Z,14.55
2022-10-21T08:24:30.036Z,14.38
2022-10-21T08:26:56.999Z,17.20
2022-10-21T08:29:24.580Z,16.48
2022-10-21T08:31:51.498Z,16.45
2022-10-21T08:34:18.567Z,16.55
2022-10-21T08:36:45.388Z,15.80
2022-10-21T08:39:12.647Z,16.95
2022-10-21T08:42:11.516Z,16.48
2022-10-21T08:44:44.503Z,16.15
2022-10-21T08:47:32.767Z,14.27
2022-10-21T08:50:04.343Z,14.15
2022-10-21T08:52:58.419Z,13.23
2022-10-21T08:55:31.832Z,16.45
2022-10-21T08:58:00.592Z,14.82
2022-10-21T09:00:34.515Z,14.43
2022-10-21T09:03:23.223Z,15.90
2022-10-21T09:06:07.467Z,15.38
2022-10-21T09:09:11.102Z,13.20
2022-10-21T09:11:54.332Z,15.30
2022-10-21T09:14:36.091Z,16.95
2022-10-21T09:17:31.024Z,14.98
2022-10-21T09:20:30.141Z,17.95
2022-10-21T09:23:20.403Z,16.25
2022-10-21T09:25:56.175Z,15.82
2022-10-21T09:28:24.588Z,17.45
2022-10-21T09:30:53.271Z,16.38
2022-10-21T09:33:24.526Z,14.70
2022-10-21T09:35:58.123Z,15.10
2022-10-21T09:38:41.523Z,18.25
2022-10-21T09:43:50.009Z,19.20
2022-10-21T09:46:17.621Z,17.45
2022-10-21T09:49:16.313Z,16.98
2022-10-21T09:51:40.093Z,16.35
2022-10-21T09:54:16.142Z,14.50
2022-10-21T09:56:52.701Z,15.45
2022-10-21T09:59:22.518Z,16.85
2022-10-21T10:04:32.795Z,15.85
2022-10-21T10:07:27.866Z,15.82
2022-10-21T10:09:54.948Z,13.55
2022-10-21T10:12:24.985Z,13.85
2022-10-21T10:17:40.696Z,12.65
2022-10-21T10:20:13.958Z,16.88
2022-10-21T10:22:47.930Z,13.75
2022-10-21T10:25:14.770Z,15.75
2022-10-21T10:28:00.220Z,15.50
2022-10-21T10:30:42.658Z,13.50
2022-10-21T10:33:17.140Z,15.25
2022-10-21T10:35:54.518Z,16.85
2022-10-21T10:38:36.357Z,13.95
2022-10-21T10:41:52.921Z,13.45
2022-10-21T10:44:36.747Z,14.05
2022-10-21T10:47:05.652Z,17.00
2022-10-21T10:49:39.415Z,15.93
2022-10-21T10:52:12.587Z,14.57
2022-10-21T10:54:41.819Z,12.50
2022-10-21T10:57:34.317Z,15.77
2022-10-21T11:00:21.359Z,14.43
2022-10-21T11:03:13.579Z,13.32
2022-10-21T11:05:45.074Z,14.20
2022-10-21T11:08:34.335Z,15.68
2022-10-21T11:11:06.905Z,13.25
2022-10-21T11:13:37.910Z,15.10
2022-10-21T11:16:12.247Z,14.73
2022-10-21T11:19:03.841Z,15.77
2022-10-21T11:22:21.043Z,15.85
2022-10-21T11:25:12.704Z,19.40
2022-10-21T11:28:06.126Z,15.15
2022-10-21T11:30:54.524Z,13.60
2022-10-21T11:33:35.264Z,13.65
2022-10-21T11:36:07.960Z,14.13
2022-10-21T11:38:43.124Z,14.02
2022-10-21T11:41:33.926Z,13.55
2022-10-21T11:44:38.411Z,14.95
2022-10-21T11:47:20.293Z,14.02
2022-10-21T11:50:21.492Z,11.75
2022-10-21T11:53:12.421Z,11.40
2022-10-21T11:55:45.370Z,11.10
2022-10-21T11:58:36.545Z,14.15
2022-10-21T12:01:15.342Z,13.57
2022-10-21T12:04:19.274Z,11.40
2022-10-21T12:07:07.659Z,13.25
2022-10-21T12:09:44.321Z,14.23
2022-10-21T12:12:18.295Z,16.20
2022-10-21T12:14:48.960Z,14.85
2022-10-21T12:17:21.925Z,12.30
2022-10-21T12:20:06.306Z,13.77
2022-10-21T12:22:34.796Z,12.20
2022-10-21T12:25:10.843Z,14.15
2022-10-21T12:27:52.733Z,12.95
2022-10-21T12:30:31.475Z,13.68
2022-10-21T12:33:13.704Z,13.35
2022-10-21T12:38:49.249Z,14.93
2022-10-21T12:41:28.160Z,13.50
2022-10-21T12:44:00.845Z,16.27
2022-10-21T12:46:51.297Z,12.93
2022-10-21T12:49:35.899Z,11.82
2022-10-21T12:54:39.118Z,16.85
2022-10-21T12:57:22.392Z,14.07
2022-10-21T12:59:55.522Z,11.30
2022-10-21T13:02:27.057Z,13.32
2022-10-21T13:04:56.626Z,13.68
2022-10-21T13:07:27.973Z,11.95
2022-10-21T13:09:55.158Z,14.20
2022-10-21T13:12:24.763Z,13.77
2022-10-21T13:14:54.730Z,14.88
2022-10-21T13:17:21.810Z,14.20
2022-10-21T13:19:49.860Z,14.02
2022-10-21T13:22:22.860Z,14.45
2022-10-21T13:24:50.210Z,12.35
2022-10-21T13:27:29.939Z,16.25
2022-10-21T13:29:58.280Z,12.98
2022-10-21T13:32:28.252Z,13.85
2022-10-21T13:35:09.634Z,13.45
2022-10-21T13:37:40.980Z,13.18
2022-10-21T13:40:15.751Z,13.20
2022-10-21T13:43:09.246Z,14.43
2022-10-21T13:45:50.323Z,13.00
2022-10-21T13:48:20.080Z,12.20
2022-10-21T13:50:50.449Z,13.20
2022-10-21T13:53:17.353Z,14.88
2022-10-21T13:56:02.739Z,13.95
2022-10-21T13:58:35.971Z,13.48
2022-10-21T14:01:18.591Z,14.05
2022-10-21T14:06:36.181Z,16.73
2022-10-21T14:09:08.135Z,15.38
2022-10-21T14:11:42.405Z,14.13
2022-10-21T14:14:13.248Z,14.50
2022-10-21T14:16:43.046Z,15.75
2022-10-21T14:19:16.959Z,16.15
2022-10-21T14:21:46.455Z,14.85
2022-10-21T14:24:36.033Z,15.82
2022-10-21T14:27:03.752Z,11.85
2022-10-21T14:29:33.762Z,13.32
2022-10-21T14:32:02.244Z,14.63
2022-10-21T14:34:32.342Z,14.27
2022-10-21T14:37:11.837Z,15.20
2022-10-21T14:39:39.607Z,18.17
2022-10-21T14:42:17.682Z,17.35
2022-10-21T14:44:46.357Z,17.00
2022-10-21T14:47:25.716Z,14.68
2022-10-21T14:49:59.803Z,18.63
2022-10-21T14:52:35.561Z,21.15
2022-10-21T14:55:10.349Z,15.38
2022-10-21T14:57:51.497Z,16.73
2022-10-21T15:00:31.609Z,16.20
2022-10-21T15:03:00.367Z,16.70
2022-10-21T15:05:46.550Z,16.40
2022-10-21T15:08:15.609Z,15.63
2022-10-21T15:10:43.961Z,17.63
2022-10-21T15:13:18.845Z,16.70
2022-10-21T15:15:49.687Z,16.13
2022-10-21T15:18:22.587Z,20.58
2022-10-21T15:20:57.543Z,17.33
2022-10-21T15:23:29.236Z,17.75
2022-10-21T15:26:00.494Z,17.98
2022-10-21T15:28:32.961Z,18.20
2022-10-21T15:31:02.276Z,18.85
2022-10-21T15:33:29.309Z,18.38
2022-10-21T15:36:05.607Z,18.20
2022-10-21T15:38:32.486Z,18.05
2022-10-21T15:40:59.437Z,17.92
2022-10-21T15:43:27.668Z,16.58
2022-10-21T15:45:54.538Z,22.13
2022-10-21T15:48:23.089Z,20.42
2022-10-21T15:50:51.458Z,18.65
2022-10-21T15:53:18.458Z,18.02
2022-10-21T15:55:47.669Z,21.65
2022-10-21T15:58:14.526Z,17.75
2022-10-21T16:00:41.475Z,21.17
2022-10-21T16:03:08.539Z,21.40
2022-10-21T16:05:35.465Z,16.83
2022-10-21T16:08:02.358Z,21.10
2022-10-21T16:10:34.963Z,17.30
2022-10-21T16:13:02.673Z,19.13
2022-10-21T16:15:29.754Z,16.17
2022-10-21T16:17:59.384Z,18.05
2022-10-21T16:20:31.837Z,15.23
2022-10-21T16:23:02.122Z,20.75
2022-10-21T16:25:31.673Z,15.00
2022-10-21T16:27:58.904Z,18.10
2022-10-21T16:30:28.585Z,17.08
2022-10-21T16:32:57.591Z,15.75
2022-10-21T16:35:25.005Z,17.10
2022-10-21T16:37:52.415Z,21.20
2022-10-21T16:40:27.095Z,18.80
2022-10-21T16:42:53.985Z,18.48
2022-10-21T16:45:22.803Z,18.98
2022-10-21T16:47:53.056Z,22.95
2022-10-21T16:50:20.035Z,19.75
2022-10-21T16:52:46.882Z,20.15
2022-10-21T16:55:14.674Z,19.50
2022-10-21T16:57:42.314Z,20.05
2022-10-21T17:00:10.278Z,20.08
2022-10-21T17:02:40.243Z,17.15
2022-10-21T17:05:08.339Z,16.67
2022-10-21T17:07:35.364Z,19.85
2022-10-21T17:10:02.451Z,20.20
2022-10-21T17:12:32.518Z,22.27
2022-10-21T17:15:00.034Z,18.63
2022-10-21T17:17:27.177Z,17.25
2022-10-21T17:19:54.112Z,19.05
2022-10-21T17:22:21.069Z,17.35
2022-10-21T17:24:48.398Z,18.42
2022-10-21T17:27:19.520Z,18.63
2022-10-21T17:29:46.776Z,17.20
2022-10-21T17:32:13.655Z,22.40
2022-10-21T17:34:41.392Z,22.08
2022-10-21T17:37:09.988Z,19.08
2022-10-21T17:39:37.022Z,18.00
2022-10-21T17:42:04.440Z,19.38
2022-10-21T17:44:31.431Z,17.80
2022-10-21T17:46:58.259Z,19.40
2022-10-21T17:49:26.340Z,22.38
2022-10-21T17:51:53.251Z,20.25
2022-10-21T17:54:22.959Z,20.98
2022-10-21T17:56:53.417Z,21.70
2022-10-21T17:59:20.310Z,19.52
2022-10-21T18:01:47.873Z,23.42
2022-10-21T18:04:14.816Z,17.48
2022-10-21T18:06:41.795Z,18.10
2022-10-21T18:09:09.420Z,18.33
2022-10-21T18:11:37.091Z,18.48
2022-10-21T18:14:04.603Z,20.73
2022-10-21T18:16:32.182Z,15.75
2022-10-21T18:19:01.961Z,19.42
2022-10-21T18:21:30.130Z,20.52
2022-10-21T18:23:57.455Z,20.00
2022-10-21T18:26:27.970Z,20.73
2022-10-21T18:28:57.674Z,19.15
2022-10-21T18:31:28.252Z,19.63
2022-10-21T18:33:56.598Z,22.25
2022-10-21T18:36:25.044Z,19.95
2022-10-21T18:38:51.935Z,21.05
2022-10-21T18:41:21.235Z,22.73
2022-10-21T18:43:50.724Z,19.90
2022-10-21T18:46:20.500Z,22.63
2022-10-21T18:48:49.072Z,19.38
2022-10-21T18:51:20.981Z,19.35
2022-10-21T18:53:50.090Z,20.77
2022-10-21T18:56:20.047Z,20.73
2022-10-21T18:58:47.137Z,20.55
2022-10-21T19:01:15.154Z,23.60
2022-10-21T19:03:43.426Z,19.48
2022-10-21T19:06:30.355Z,21.67
2022-10-21T19:09:01.037Z,22.50
2022-10-21T19:11:28.660Z,21.70
2022-10-21T19:13:55.869Z,18.80
2022-10-21T19:16:23.020Z,19.52
2022-10-21T19:18:50.100Z,21.30
2022-10-21T19:21:19.417Z,23.63
2022-10-21T19:23:46.658Z,18.70
2022-10-21T19:26:14.572Z,21.02
2022-10-21T19:28:41.731Z,18.50
2022-10-21T19:31:11.536Z,16.95
2022-10-21T19:33:38.933Z,20.48
2022-10-21T19:36:07.059Z,20.73
2022-10-21T19:38:50.269Z,19.50
2022-10-21T19:41:20.229Z,19.73
2022-10-21T19:43:48.047Z,19.40
2022-10-21T19:46:21.040Z,18.48
2022-10-21T19:48:50.833Z,20.55
2022-10-21T19:51:21.440Z,21.23
2022-10-21T19:53:52.258Z,26.65
2022-10-21T19:56:23.793Z,18.65
2022-10-21T19:58:54.388Z,20.52
2022-10-21T20:01:24.214Z,22.90
2022-10-21T20:03:52.674Z,20.65
2022-10-21T20:06:24.512Z,25.27
2022-10-21T20:08:58.623Z,20.25
2022-10-21T20:11:26.920Z,22.58
2022-10-21T20:13:54.030Z,22.00
2022-10-21T20:16:23.931Z,19.73
2022-10-21T20:21:21.237Z,21.77
2022-10-21T20:23:49.588Z,19.35
2022-10-21T20:26:16.788Z,22.05
2022-10-21T20:28:44.344Z,24.23
2022-10-21T20:31:16.617Z,20.52
2022-10-21T20:33:48.586Z,23.25
2022-10-21T20:36:25.098Z,23.38
2022-10-21T20:38:54.006Z,18.85
2022-10-21T20:41:25.749Z,18.98
2022-10-21T20:43:56.736Z,20.20
2022-10-21T20:46:27.638Z,18.73
2022-10-21T20:48:55.119Z,20.00
2022-10-21T20:51:31.276Z,17.95
2022-10-21T20:54:03.665Z,18.33
2022-10-21T20:56:43.079Z,23.00
2022-10-21T20:59:15.346Z,19.42
2022-10-21T21:01:47.923Z,18.38
2022-10-21T21:04:17.638Z,20.08
2022-10-21T21:06:50.742Z,18.60
2022-10-21T21:09:43.661Z,22.42
2022-10-21T21:12:17.817Z,18.77
2022-10-21T21:14:45.207Z,20.50
2022-10-21T21:17:13.002Z,17.88
2022-10-21T21:19:40.736Z,19.30
2022-10-21T21:22:10.725Z,20.75
2022-10-21T21:24:38.446Z,24.75
2022-10-21T21:27:05.914Z,19.45
2022-10-21T21:29:33.513Z,21.58
2022-10-21T21:32:00.737Z,15.88
2022-10-21T21:34:28.801Z,18.08
2022-10-21T21:36:56.393Z,20.40
2022-10-21T21:39:23.545Z,21.27
2022-10-21T21:41:51.465Z,22.15
2022-10-21T21:44:18.391Z,20.23
2022-10-21T21:46:45.719Z,20.65
2022-10-21T21:49:13.369Z,17.00
2022-10-21T21:51:40.828Z,18.55
2022-10-21T21:54:10.514Z,19.92
2022-10-21T21:56:38.997Z,19.73
2022-10-21T21:59:11.799Z,23.08
2022-10-21T22:01:39.296Z,17.77
2022-10-21T22:04:07.076Z,20.25
2022-10-21T22:06:36.361Z,17.92
2022-10-21T22:09:10.154Z,19.23
2022-10-21T22:11:39.216Z,19.25
2022-10-21T22:14:07.768Z,22.00
2022-10-21T22:16:35.133Z,18.20
2022-10-21T22:19:02.606Z,21.42
2022-10-21T22:21:33.930Z,17.95
2022-10-21T22:24:01.401Z,19.20
2022-10-21T22:26:29.978Z,20.92
2022-10-21T22:28:57.114Z,16.55
2022-10-21T22:31:30.275Z,18.58
2022-10-21T22:34:05.473Z,19.85
2022-10-21T22:36:34.801Z,18.85
2022-10-21T22:39:03.536Z,19.73
2022-10-21T22:41:30.879Z,18.00
2022-10-21T22:43:58.419Z,19.65
2022-10-21T22:46:40.952Z,21.92
2022-10-21T22:49:08.721Z,17.42
2022-10-21T22:51:35.777Z,20.30
2022-10-21T22:54:02.931Z,18.83
2022-10-21T22:56:32.765Z,20.50
2022-10-21T22:59:00.223Z,19.77
2022-10-21T23:01:30.387Z,20.02
2022-10-21T23:04:02.731Z,17.73
2022-10-21T23:06:34.511Z,20.15
2022-10-21T23:09:02.835Z,25.10
2022-10-21T23:11:30.531Z,19.33
2022-10-21T23:14:03.344Z,18.40
2022-10-21T23:16:34.994Z,18.52
2022-10-21T23:19:02.278Z,17.77
2022-10-21T23:21:29.443Z,19.20
2022-10-21T23:23:57.006Z,21.80
2022-10-21T23:26:24.400Z,21.55
2022-10-21T23:28:51.687Z,19.65
2022-10-21T23:31:19.890Z,21.95
2022-10-21T23:33:47.311Z,21.95
2022-10-21T23:36:14.779Z,18.77
2022-10-21T23:38:42.137Z,20.83
2022-10-21T23:41:09.560Z,17.17
2022-10-21T23:43:36.987Z,21.08
2022-10-21T23:46:06.642Z,19.63
2022-10-21T23:48:36.518Z,21.58
2022-10-21T23:53:33.825Z,17.58
2022-10-21T23:56:03.783Z,21.60
2022-10-21T23:58:30.956Z,19.83
